sensor_id;sensor_type;location;lat;lon;timestamp;pressure;altitude;pressure_sealevel;temperature;humidity
74552;BME280;63025;55.472;38.432;2022-09-09T00:04:39;100910.88;;;6.24;76.15
74552;BME280;63025;55.472;38.432;2022-09-09T00:12:27;100904.19;;;6.20;76.42
74552;BME280;63025;55.472;38.432;2022-09-09T00:15:02;100907.03;;;6.19;76.47
74552;BME280;63025;55.472;38.432;2022-09-09T00:23:26;100913.69;;;6.23;75.99
74552;BME280;63025;55.472;38.432;2022-09-09T00:28:26;100922.53;;;6.23;76.37
74552;BME280;63025;55.472;38.432;2022-09-09T00:30:52;100919.88;;;6.23;76.54
74552;BME280;63025;55.472;38.432;2022-09-09T00:33:20;100927.72;;;6.25;76.24
74552;BME280;63025;55.472;38.432;2022-09-09T00:35:50;100919.03;;;6.23;76.03
74552;BME280;63025;55.472;38.432;2022-09-09T00:38:20;100922.72;;;6.22;76.12
74552;BME280;63025;55.472;38.432;2022-09-09T00:40:52;100922.72;;;6.22;76.15
74552;BME280;63025;55.472;38.432;2022-09-09T00:46:09;100922.72;;;6.22;76.64
74552;BME280;63025;55.472;38.432;2022-09-09T00:51:23;100933.03;;;6.17;76.24
74552;BME280;63025;55.472;38.432;2022-09-09T00:56:35;100933.88;;;6.17;76.04
74552;BME280;63025;55.472;38.432;2022-09-09T01:01:56;100942.72;;;6.18;76.08
74552;BME280;63025;55.472;38.432;2022-09-09T01:04:29;100932.19;;;6.16;76.28
74552;BME280;63025;55.472;38.432;2022-09-09T01:07:28;100926.84;;;6.16;76.29
74552;BME280;63025;55.472;38.432;2022-09-09T01:09:58;100933.19;;;6.15;76.31
74552;BME280;63025;55.472;38.432;2022-09-09T01:12:54;100934.84;;;6.16;76.21
74552;BME280;63025;55.472;38.432;2022-09-09T01:15:27;100935.69;;;6.17;76.45
74552;BME280;63025;55.472;38.432;2022-09-09T01:20:39;100941.03;;;6.17;76.12
74552;BME280;63025;55.472;38.432;2022-09-09T01:26:09;100950.88;;;6.16;76.32
74552;BME280;63025;55.472;38.432;2022-09-09T01:28:37;100955.06;;;6.19;76.18
74552;BME280;63025;55.472;38.432;2022-09-09T01:31:11;100954.22;;;6.18;76.20
74552;BME280;63025;55.472;38.432;2022-09-09T01:33:43;100956.22;;;6.16;76.65
74552;BME280;63025;55.472;38.432;2022-09-09T01:36:13;100958.03;;;6.16;76.68
74552;BME280;63025;55.472;38.432;2022-09-09T01:38:46;100951.72;;;6.17;76.45
74552;BME280;63025;55.472;38.432;2022-09-09T01:41:12;100954.38;;;6.17;76.53
74552;BME280;63025;55.472;38.432;2022-09-09T01:43:45;100971.06;;;6.19;76.80
74552;BME280;63025;55.472;38.432;2022-09-09T01:46:11;100963.91;;;6.19;76.51
74552;BME280;63025;55.472;38.432;2022-09-09T01:48:39;100963.91;;;6.19;76.66
74552;BME280;63025;55.472;38.432;2022-09-09T01:51:09;100966.88;;;6.16;76.55
74552;BME280;63025;55.472;38.432;2022-09-09T01:53:37;100974.75;;;6.18;76.46
74552;BME280;63025;55.472;38.432;2022-09-09T02:04:41;100982.75;;;6.18;77.06
74552;BME280;63025;55.472;38.432;2022-09-09T02:07:41;100978.41;;;6.17;76.70
74552;BME280;63025;55.472;38.432;2022-09-09T02:10:35;100975.72;;;6.17;77.15
74552;BME280;63025;55.472;38.432;2022-09-09T02:13:14;100980.38;;;6.15;77.03
74552;BME280;63025;55.472;38.432;2022-09-09T02:19:00;100987.53;;;6.14;77.09
74552;BME280;63025;55.472;38.432;2022-09-09T02:21:37;100985.22;;;6.11;77.29
74552;BME280;63025;55.472;38.432;2022-09-09T02:24:05;100986.72;;;6.14;77.25
74552;BME280;63025;55.472;38.432;2022-09-09T02:26:40;100985.72;;;6.15;76.92
74552;BME280;63025;55.472;38.432;2022-09-09T02:29:13;100993.72;;;6.15;77.05
74552;BME280;63025;55.472;38.432;2022-09-09T02:31:41;100992.03;;;6.14;76.92
74552;BME280;63025;55.472;38.432;2022-09-09T02:34:17;101002.06;;;6.12;77.07
74552;BME280;63025;55.472;38.432;2022-09-09T02:36:45;101002.22;;;6.10;77.41
74552;BME280;63025;55.472;38.432;2022-09-09T02:39:13;100999.03;;;6.07;77.30
74552;BME280;63025;55.472;38.432;2022-09-09T02:41:41;101005.00;;;6.01;77.38
74552;BME280;63025;55.472;38.432;2022-09-09T02:44:12;101009.94;;;5.96;77.44
74552;BME280;63025;55.472;38.432;2022-09-09T02:47:04;101016.91;;;5.88;77.66
74552;BME280;63025;55.472;38.432;2022-09-09T02:49:57;101027.63;;;5.79;78.03
74552;BME280;63025;55.472;38.432;2022-09-09T02:52:55;101030.25;;;5.71;77.90
74552;BME280;63025;55.472;38.432;2022-09-09T02:55:41;101031.38;;;5.68;77.99
74552;BME280;63025;55.472;38.432;2022-09-09T02:58:14;101042.34;;;5.65;78.08
74552;BME280;63025;55.472;38.432;2022-09-09T03:00:47;101041.13;;;5.60;78.77
74552;BME280;63025;55.472;38.432;2022-09-09T03:03:15;101036.53;;;5.52;78.75
74552;BME280;63025;55.472;38.432;2022-09-09T03:05:42;101043.03;;;5.49;78.77
74552;BME280;63025;55.472;38.432;2022-09-09T03:08:08;101046.44;;;5.42;78.71
74552;BME280;63025;55.472;38.432;2022-09-09T03:10:35;101041.72;;;5.36;78.92
74552;BME280;63025;55.472;38.432;2022-09-09T03:13:03;101036.00;;;5.31;79.07
74552;BME280;63025;55.472;38.432;2022-09-09T03:15:34;101041.94;;;5.25;79.25
74552;BME280;63025;55.472;38.432;2022-09-09T03:18:00;101044.06;;;5.21;79.50
74552;BME280;63025;55.472;38.432;2022-09-09T03:20:27;101061.03;;;5.20;79.76
74552;BME280;63025;55.472;38.432;2022-09-09T03:22:54;101045.88;;;5.21;80.10
74552;BME280;63025;55.472;38.432;2022-09-09T03:25:21;101044.47;;;5.26;80.30
74552;BME280;63025;55.472;38.432;2022-09-09T03:27:52;101052.84;;;5.31;80.12
74552;BME280;63025;55.472;38.432;2022-09-09T03:30:22;101047.06;;;5.36;80.29
74552;BME280;63025;55.472;38.432;2022-09-09T03:32:48;101052.94;;;5.39;80.23
74552;BME280;63025;55.472;38.432;2022-09-09T03:35:14;101050.09;;;5.41;80.19
74552;BME280;63025;55.472;38.432;2022-09-09T03:37:41;101056.75;;;5.37;79.91
74552;BME280;63025;55.472;38.432;2022-09-09T03:40:08;101063.06;;;5.36;80.22
74552;BME280;63025;55.472;38.432;2022-09-09T03:42:38;101061.94;;;5.38;80.30
74552;BME280;63025;55.472;38.432;2022-09-09T03:45:06;101059.09;;;5.40;80.15
74552;BME280;63025;55.472;38.432;2022-09-09T03:47:32;101069.16;;;5.46;79.91
74552;BME280;63025;55.472;38.432;2022-09-09T03:50:05;101072.19;;;5.51;80.04
74552;BME280;63025;55.472;38.432;2022-09-09T03:52:39;101067.25;;;5.56;80.18
74552;BME280;63025;55.472;38.432;2022-09-09T03:55:09;101075.47;;;5.63;79.79
74552;BME280;63025;55.472;38.432;2022-09-09T03:57:36;101073.91;;;5.70;80.01
74552;BME280;63025;55.472;38.432;2022-09-09T04:00:07;101080.75;;;5.72;79.33
74552;BME280;63025;55.472;38.432;2022-09-09T04:02:42;101081.44;;;5.74;79.68
74552;BME280;63025;55.472;38.432;2022-09-09T04:05:12;101078.81;;;5.82;79.30
74552;BME280;63025;55.472;38.432;2022-09-09T04:07:41;101080.22;;;5.86;79.24
74552;BME280;63025;55.472;38.432;2022-09-09T04:10:07;101088.31;;;5.95;79.30
74552;BME280;63025;55.472;38.432;2022-09-09T04:12:35;101086.72;;;6.02;78.66
74552;BME280;63025;55.472;38.432;2022-09-09T04:15:01;101080.44;;;6.11;78.99
74552;BME280;63025;55.472;38.432;2022-09-09T04:17:28;101087.81;;;6.17;78.64
74552;BME280;63025;55.472;38.432;2022-09-09T04:19:54;101089.06;;;6.22;78.27
74552;BME280;63025;55.472;38.432;2022-09-09T04:22:21;101097.94;;;6.31;78.07
74552;BME280;63025;55.472;38.432;2022-09-09T04:24:48;101094.50;;;6.39;77.71
74552;BME280;63025;55.472;38.432;2022-09-09T04:27:15;101089.06;;;6.48;77.78
74552;BME280;63025;55.472;38.432;2022-09-09T04:29:40;101097.09;;;6.56;77.31
74552;BME280;63025;55.472;38.432;2022-09-09T04:32:07;101094.31;;;6.66;77.00
74552;BME280;63025;55.472;38.432;2022-09-09T04:34:33;101087.38;;;6.73;77.17
74552;BME280;63025;55.472;38.432;2022-09-09T04:36:59;101093.59;;;6.82;76.92
74552;BME280;63025;55.472;38.432;2022-09-09T04:39:25;101093.31;;;6.93;76.51
74552;BME280;63025;55.472;38.432;2022-09-09T04:41:51;101099.84;;;6.98;75.87
74552;BME280;63025;55.472;38.432;2022-09-09T04:44:16;101100.69;;;7.07;75.44
74552;BME280;63025;55.472;38.432;2022-09-09T04:46:42;101105.44;;;7.13;75.15
74552;BME280;63025;55.472;38.432;2022-09-09T04:49:09;101113.47;;;7.21;75.09
74552;BME280;63025;55.472;38.432;2022-09-09T04:51:35;101107.66;;;7.34;74.72
74552;BME280;63025;55.472;38.432;2022-09-09T04:54:01;101104.84;;;7.44;74.71
74552;BME280;63025;55.472;38.432;2022-09-09T04:56:27;101109.75;;;7.56;74.64
74552;BME280;63025;55.472;38.432;2022-09-09T04:58:57;101113.59;;;7.62;73.69
74552;BME280;63025;55.472;38.432;2022-09-09T05:01:33;101114.28;;;7.72;73.56
74552;BME280;63025;55.472;38.432;2022-09-09T05:04:02;101109.78;;;7.81;73.08
74552;BME280;63025;55.472;38.432;2022-09-09T05:06:28;101119.66;;;7.88;73.13
74552;BME280;63025;55.472;38.432;2022-09-09T05:08:58;101119.84;;;7.95;72.55
74552;BME280;63025;55.472;38.432;2022-09-09T05:11:29;101115.00;;;8.06;72.34
74552;BME280;63025;55.472;38.432;2022-09-09T05:14:20;101121.66;;;8.10;72.03
74552;BME280;63025;55.472;38.432;2022-09-09T05:16:45;101126.22;;;8.18;71.33
74552;BME280;63025;55.472;38.432;2022-09-09T05:19:13;101129.22;;;8.31;71.20
74552;BME280;63025;55.472;38.432;2022-09-09T05:21:45;101129.91;;;8.41;70.91
74552;BME280;63025;55.472;38.432;2022-09-09T05:24:13;101125.69;;;8.55;70.67
74552;BME280;63025;55.472;38.432;2022-09-09T05:26:39;101131.03;;;8.63;70.05
74552;BME280;63025;55.472;38.432;2022-09-09T05:29:06;101127.00;;;8.75;70.03
74552;BME280;63025;55.472;38.432;2022-09-09T05:31:31;101128.66;;;8.84;69.67
74552;BME280;63025;55.472;38.432;2022-09-09T05:34:02;101129.97;;;8.97;69.21
74552;BME280;63025;55.472;38.432;2022-09-09T05:36:28;101136.63;;;9.09;68.75
74552;BME280;63025;55.472;38.432;2022-09-09T05:38:55;101126.03;;;9.15;68.24
74552;BME280;63025;55.472;38.432;2022-09-09T05:41:21;101128.03;;;9.22;67.56
74552;BME280;63025;55.472;38.432;2022-09-09T05:43:49;101139.41;;;9.32;67.26
74552;BME280;63025;55.472;38.432;2022-09-09T05:46:19;101132.84;;;9.34;66.38
74552;BME280;63025;55.472;38.432;2022-09-09T05:48:47;101136.81;;;9.46;66.35
74552;BME280;63025;55.472;38.432;2022-09-09T05:51:24;101130.56;;;9.54;65.72
74552;BME280;63025;55.472;38.432;2022-09-09T05:53:51;101145.06;;;9.68;65.59
74552;BME280;63025;55.472;38.432;2022-09-09T05:56:20;101144.06;;;9.69;64.59
74552;BME280;63025;55.472;38.432;2022-09-09T05:58:48;101144.50;;;9.80;64.63
74552;BME280;63025;55.472;38.432;2022-09-09T06:01:18;101155.00;;;9.90;64.20
74552;BME280;63025;55.472;38.432;2022-09-09T06:03:46;101146.63;;;9.93;63.47
74552;BME280;63025;55.472;38.432;2022-09-09T06:06:17;101147.63;;;9.92;62.94
74552;BME280;63025;55.472;38.432;2022-09-09T06:08:47;101151.97;;;9.93;63.08
74552;BME280;63025;55.472;38.432;2022-09-09T06:13:43;101155.09;;;10.05;62.13
74552;BME280;63025;55.472;38.432;2022-09-09T06:16:10;101156.09;;;10.04;61.88
74552;BME280;63025;55.472;38.432;2022-09-09T06:18:37;101154.81;;;10.22;61.84
74552;BME280;63025;55.472;38.432;2022-09-09T06:21:14;101155.06;;;10.36;61.41
74552;BME280;63025;55.472;38.432;2022-09-09T06:23:40;101155.91;;;10.51;61.27
74552;BME280;63025;55.472;38.432;2022-09-09T06:26:09;101162.19;;;10.66;59.85
74552;BME280;63025;55.472;38.432;2022-09-09T06:28:36;101158.66;;;10.65;57.79
74552;BME280;63025;55.472;38.432;2022-09-09T06:31:05;101162.25;;;10.73;57.63
74552;BME280;63025;55.472;38.432;2022-09-09T06:33:33;101160.31;;;10.81;57.03
74552;BME280;63025;55.472;38.432;2022-09-09T06:36:02;101159.34;;;10.97;56.47
74552;BME280;63025;55.472;38.432;2022-09-09T06:38:30;101161.66;;;11.15;56.60
74552;BME280;63025;55.472;38.432;2022-09-09T06:40:57;101162.31;;;11.31;56.16
74552;BME280;63025;55.472;38.432;2022-09-09T06:43:25;101165.16;;;11.45;54.76
74552;BME280;63025;55.472;38.432;2022-09-09T06:46:16;101164.72;;;11.41;53.66
74552;BME280;63025;55.472;38.432;2022-09-09T06:48:45;101164.13;;;11.46;52.94
74552;BME280;63025;55.472;38.432;2022-09-09T06:51:19;101165.44;;;11.50;52.35
74552;BME280;63025;55.472;38.432;2022-09-09T06:53:54;101167.69;;;11.31;52.26
74552;BME280;63025;55.472;38.432;2022-09-09T06:56:28;101169.44;;;11.39;51.29
74552;BME280;63025;55.472;38.432;2022-09-09T06:58:57;101179.25;;;11.61;51.13
74552;BME280;63025;55.472;38.432;2022-09-09T07:01:33;101165.47;;;11.86;50.98
74552;BME280;63025;55.472;38.432;2022-09-09T07:04:03;101171.31;;;11.89;50.87
74552;BME280;63025;55.472;38.432;2022-09-09T07:06:38;101183.00;;;11.96;49.54
74552;BME280;63025;55.472;38.432;2022-09-09T07:09:07;101173.03;;;11.75;48.06
74552;BME280;63025;55.472;38.432;2022-09-09T07:11:38;101179.06;;;11.63;48.57
74552;BME280;63025;55.472;38.432;2022-09-09T07:14:05;101183.69;;;11.69;49.16
74552;BME280;63025;55.472;38.432;2022-09-09T07:16:31;101183.63;;;11.62;48.62
74552;BME280;63025;55.472;38.432;2022-09-09T07:19:01;101190.03;;;11.61;48.96
74552;BME280;63025;55.472;38.432;2022-09-09T07:21:29;101194.13;;;11.57;48.75
74552;BME280;63025;55.472;38.432;2022-09-09T07:23:56;101205.91;;;11.71;48.24
74552;BME280;63025;55.472;38.432;2022-09-09T07:26:24;101201.44;;;11.78;48.05
74552;BME280;63025;55.472;38.432;2022-09-09T07:28:52;101206.53;;;11.88;47.89
74552;BME280;63025;55.472;38.432;2022-09-09T07:31:22;101199.63;;;12.00;47.93
74552;BME280;63025;55.472;38.432;2022-09-09T07:33:49;101209.78;;;12.19;47.60
74552;BME280;63025;55.472;38.432;2022-09-09T07:36:18;101209.53;;;12.57;47.42
74552;BME280;63025;55.472;38.432;2022-09-09T07:38:52;101200.50;;;13.54;45.73
74552;BME280;63025;55.472;38.432;2022-09-09T07:41:21;101191.00;;;14.39;43.20
74552;BME280;63025;55.472;38.432;2022-09-09T07:43:50;101203.25;;;15.27;41.88
74552;BME280;63025;55.472;38.432;2022-09-09T07:46:18;101201.84;;;15.83;40.32
74552;BME280;63025;55.472;38.432;2022-09-09T07:48:52;101205.72;;;16.69;38.34
74552;BME280;63025;55.472;38.432;2022-09-09T07:51:23;101199.28;;;17.86;36.67
74552;BME280;63025;55.472;38.432;2022-09-09T07:53:58;101198.91;;;19.19;34.92
74552;BME280;63025;55.472;38.432;2022-09-09T07:56:26;101198.72;;;20.12;32.87
74552;BME280;63025;55.472;38.432;2022-09-09T07:58:55;101207.00;;;20.79;31.39
74552;BME280;63025;55.472;38.432;2022-09-09T08:01:29;101201.16;;;21.43;30.56
74552;BME280;63025;55.472;38.432;2022-09-09T08:03:58;101208.34;;;20.94;29.98
74552;BME280;63025;55.472;38.432;2022-09-09T08:06:26;101206.69;;;20.31;30.68
74552;BME280;63025;55.472;38.432;2022-09-09T08:08:53;101212.50;;;20.96;29.45
74552;BME280;63025;55.472;38.432;2022-09-09T08:11:23;101202.13;;;20.20;29.29
74552;BME280;63025;55.472;38.432;2022-09-09T08:13:50;101209.59;;;18.56;31.59
74552;BME280;63025;55.472;38.432;2022-09-09T08:16:19;101208.91;;;17.09;33.47
74552;BME280;63025;55.472;38.432;2022-09-09T08:18:49;101208.31;;;16.51;35.29
74552;BME280;63025;55.472;38.432;2022-09-09T08:21:17;101221.56;;;16.03;36.00
74552;BME280;63025;55.472;38.432;2022-09-09T08:23:45;101222.78;;;15.49;36.86
74552;BME280;63025;55.472;38.432;2022-09-09T08:26:13;101226.81;;;15.20;37.31
74552;BME280;63025;55.472;38.432;2022-09-09T08:28:40;101232.66;;;14.64;37.89
74552;BME280;63025;55.472;38.432;2022-09-09T08:33:33;101218.34;;;19.23;32.52
74552;BME280;63025;55.472;38.432;2022-09-09T08:35:59;101223.09;;;20.76;31.08
74552;BME280;63025;55.472;38.432;2022-09-09T08:38:25;101213.56;;;22.16;28.92
74552;BME280;63025;55.472;38.432;2022-09-09T08:40:52;101212.88;;;22.52;28.55
74552;BME280;63025;55.472;38.432;2022-09-09T08:43:28;101208.16;;;23.54;26.87
74552;BME280;63025;55.472;38.432;2022-09-09T08:48:47;101225.44;;;21.56;27.39
74552;BME280;63025;55.472;38.432;2022-09-09T08:51:18;101231.66;;;20.23;29.17
74552;BME280;63025;55.472;38.432;2022-09-09T08:53:48;101236.56;;;19.11;30.10
74552;BME280;63025;55.472;38.432;2022-09-09T08:56:25;101237.63;;;18.86;31.21
74552;BME280;63025;55.472;38.432;2022-09-09T08:58:55;101221.72;;;21.45;28.60
74552;BME280;63025;55.472;38.432;2022-09-09T09:04:41;101212.84;;;21.99;26.61
74552;BME280;63025;55.472;38.432;2022-09-09T20:08:48;101400.81;;;3.97;72.27
74552;BME280;63025;55.472;38.432;2022-09-09T20:11:16;101410.50;;;4.08;72.80
74552;BME280;63025;55.472;38.432;2022-09-09T20:13:42;101403.72;;;4.15;73.25
74552;BME280;63025;55.472;38.432;2022-09-09T20:16:13;101404.13;;;4.20;73.08
74552;BME280;63025;55.472;38.432;2022-09-09T20:18:42;101407.91;;;4.27;72.64
74552;BME280;63025;55.472;38.432;2022-09-09T20:21:12;101403.06;;;4.32;72.06
74552;BME280;63025;55.472;38.432;2022-09-09T20:23:40;101404.44;;;4.36;71.82
74552;BME280;63025;55.472;38.432;2022-09-09T20:26:11;101409.38;;;4.41;71.37
74552;BME280;63025;55.472;38.432;2022-09-09T20:28:39;101407.69;;;4.40;71.18
74552;BME280;63025;55.472;38.432;2022-09-09T20:31:16;101415.41;;;4.43;71.42
74552;BME280;63025;55.472;38.432;2022-09-09T20:33:44;101417.94;;;4.45;71.31
74552;BME280;63025;55.472;38.432;2022-09-09T20:36:15;101418.06;;;4.43;70.88
74552;BME280;63025;55.472;38.432;2022-09-09T20:41:31;101414.56;;;4.42;70.95
74552;BME280;63025;55.472;38.432;2022-09-09T20:43:59;101416.38;;;4.42;70.47
74552;BME280;63025;55.472;38.432;2022-09-09T20:46:31;101420.16;;;4.39;70.16
74552;BME280;63025;55.472;38.432;2022-09-09T20:48:58;101412.28;;;4.38;70.22
74552;BME280;63025;55.472;38.432;2022-09-09T20:51:25;101415.09;;;4.36;69.80
74552;BME280;63025;55.472;38.432;2022-09-09T20:53:56;101413.69;;;4.32;70.40
74552;BME280;63025;55.472;38.432;2022-09-09T20:56:26;101415.66;;;4.30;69.99
74552;BME280;63025;55.472;38.432;2022-09-09T20:58:53;101426.53;;;4.27;70.33
74552;BME280;63025;55.472;38.432;2022-09-09T21:01:19;101422.50;;;4.23;69.97
74552;BME280;63025;55.472;38.432;2022-09-09T21:03:46;101433.41;;;4.20;70.07
74552;BME280;63025;55.472;38.432;2022-09-09T21:06:13;101427.50;;;4.17;69.64
74552;BME280;63025;55.472;38.432;2022-09-09T21:08:42;101435.19;;;4.10;69.73
74552;BME280;63025;55.472;38.432;2022-09-09T21:11:09;101429.56;;;4.03;70.08
74552;BME280;63025;55.472;38.432;2022-09-09T21:13:36;101432.34;;;4.02;70.25
74552;BME280;63025;55.472;38.432;2022-09-09T21:16:04;101434.28;;;4.00;70.07
74552;BME280;63025;55.472;38.432;2022-09-09T21:18:30;101443.25;;;3.99;70.16
74552;BME280;63025;55.472;38.432;2022-09-09T21:20:56;101435.38;;;3.97;70.60
74552;BME280;63025;55.472;38.432;2022-09-09T21:23:23;101428.50;;;3.95;70.42
74552;BME280;63025;55.472;38.432;2022-09-09T21:25:49;101441.81;;;3.95;69.74
74552;BME280;63025;55.472;38.432;2022-09-09T21:28:16;101439.31;;;3.93;69.93
74552;BME280;63025;55.472;38.432;2022-09-09T21:30:46;101431.72;;;3.89;69.88
74552;BME280;63025;55.472;38.432;2022-09-09T21:33:13;101433.78;;;3.85;69.85
74552;BME280;63025;55.472;38.432;2022-09-09T21:35:40;101438.97;;;3.87;69.81
74552;BME280;63025;55.472;38.432;2022-09-09T21:38:07;101437.28;;;3.86;69.71
74552;BME280;63025;55.472;38.432;2022-09-09T21:40:37;101440.91;;;3.85;69.71
74552;BME280;63025;55.472;38.432;2022-09-09T21:43:07;101435.41;;;3.77;69.61
74552;BME280;63025;55.472;38.432;2022-09-09T21:45:37;101440.72;;;3.77;70.14
74552;BME280;63025;55.472;38.432;2022-09-09T21:48:04;101438.38;;;3.74;69.91
74552;BME280;63025;55.472;38.432;2022-09-09T21:50:35;101439.19;;;3.74;69.96
74552;BME280;63025;55.472;38.432;2022-09-09T21:53:01;101437.53;;;3.73;69.79
74552;BME280;63025;55.472;38.432;2022-09-09T21:55:27;101438.88;;;3.67;69.61
74552;BME280;63025;55.472;38.432;2022-09-09T21:57:53;101444.59;;;3.63;69.85
74552;BME280;63025;55.472;38.432;2022-09-09T22:00:19;101444.72;;;3.61;69.63
74552;BME280;63025;55.472;38.432;2022-09-09T22:02:45;101440.38;;;3.60;70.04
74552;BME280;63025;55.472;38.432;2022-09-09T22:05:11;101446.78;;;3.58;69.60
74552;BME280;63025;55.472;38.432;2022-09-09T22:07:37;101441.34;;;3.59;69.59
74552;BME280;63025;55.472;38.432;2022-09-09T22:10:04;101442.69;;;3.54;69.20
74552;BME280;63025;55.472;38.432;2022-09-09T22:12:30;101447.69;;;3.47;69.90
74552;BME280;63025;55.472;38.432;2022-09-09T22:14:56;101439.97;;;3.44;70.28
74552;BME280;63025;55.472;38.432;2022-09-09T22:17:22;101460.53;;;3.42;70.71
74552;BME280;63025;55.472;38.432;2022-09-09T22:19:49;101446.53;;;3.40;70.21
74552;BME280;63025;55.472;38.432;2022-09-09T22:22:19;101453.78;;;3.38;70.11
74552;BME280;63025;55.472;38.432;2022-09-09T22:24:45;101452.09;;;3.37;69.84
74552;BME280;63025;55.472;38.432;2022-09-09T22:27:12;101447.88;;;3.35;69.77
74552;BME280;63025;55.472;38.432;2022-09-09T22:29:40;101452.34;;;3.34;69.52
74552;BME280;63025;55.472;38.432;2022-09-09T22:32:06;101456.97;;;3.32;69.86
74552;BME280;63025;55.472;38.432;2022-09-09T22:34:35;101451.03;;;3.28;69.48
74552;BME280;63025;55.472;38.432;2022-09-09T22:37:01;101451.16;;;3.27;69.35
74552;BME280;63025;55.472;38.432;2022-09-09T22:39:27;101453.94;;;3.25;69.78
74552;BME280;63025;55.472;38.432;2022-09-09T22:41:53;101452.38;;;3.23;69.29
74552;BME280;63025;55.472;38.432;2022-09-09T22:44:22;101451.69;;;3.21;69.67
74552;BME280;63025;55.472;38.432;2022-09-09T22:46:49;101450.00;;;3.20;69.52
74552;BME280;63025;55.472;38.432;2022-09-09T22:49:15;101446.63;;;3.18;69.56
74552;BME280;63025;55.472;38.432;2022-09-09T22:51:40;101443.25;;;3.16;69.65
74552;BME280;63025;55.472;38.432;2022-09-09T22:54:06;101446.88;;;3.15;69.29
74552;BME280;63025;55.472;38.432;2022-09-09T22:56:32;101444.47;;;3.12;69.78
74552;BME280;63025;55.472;38.432;2022-09-09T22:58:58;101440.28;;;3.09;69.01
74552;BME280;63025;55.472;38.432;2022-09-09T23:01:26;101451.25;;;3.05;68.83
74552;BME280;63025;55.472;38.432;2022-09-09T23:03:53;101455.84;;;3.03;69.04
74552;BME280;63025;55.472;38.432;2022-09-09T23:06:22;101454.31;;;3.00;69.71
74552;BME280;63025;55.472;38.432;2022-09-09T23:08:51;101460.47;;;3.01;69.76
74552;BME280;63025;55.472;38.432;2022-09-09T23:11:18;101456.59;;;2.93;70.22
74552;BME280;63025;55.472;38.432;2022-09-09T23:13:49;101459.66;;;2.89;69.87
74552;BME280;63025;55.472;38.432;2022-09-09T23:16:22;101457.84;;;2.89;69.94
74552;BME280;63025;55.472;38.432;2022-09-09T23:18:49;101457.97;;;2.88;69.89
74552;BME280;63025;55.472;38.432;2022-09-09T23:21:17;101455.31;;;2.88;69.87
74552;BME280;63025;55.472;38.432;2022-09-09T23:23:44;101458.94;;;2.87;69.76
74552;BME280;63025;55.472;38.432;2022-09-09T23:26:12;101451.09;;;2.85;69.89
74552;BME280;63025;55.472;38.432;2022-09-09T23:28:39;101463.63;;;2.83;69.60
74552;BME280;63025;55.472;38.432;2022-09-09T23:31:10;101456.63;;;2.82;69.57
74552;BME280;63025;55.472;38.432;2022-09-09T23:33:38;101461.22;;;2.80;69.79
74552;BME280;63025;55.472;38.432;2022-09-09T23:36:07;101459.69;;;2.78;69.82
74552;BME280;63025;55.472;38.432;2022-09-09T23:38:34;101458.84;;;2.77;69.55
74552;BME280;63025;55.472;38.432;2022-09-09T23:41:01;101463.66;;;2.72;69.50
74552;BME280;63025;55.472;38.432;2022-09-09T23:43:27;101449.53;;;2.72;69.43
74552;BME280;63025;55.472;38.432;2022-09-09T23:45:54;101455.69;;;2.72;69.19
74552;BME280;63025;55.472;38.432;2022-09-09T23:48:22;101458.63;;;2.69;69.09
74552;BME280;63025;55.472;38.432;2022-09-09T23:50:48;101456.94;;;2.68;69.91
74552;BME280;63025;55.472;38.432;2022-09-09T23:53:15;101458.13;;;2.64;70.14
74552;BME280;63025;55.472;38.432;2022-09-09T23:55:42;101457.53;;;2.61;70.12
74552;BME280;63025;55.472;38.432;2022-09-09T23:58:08;101463.69;;;2.61;69.63
